Time;durP1;ratioP1;P1;durP2;ratioP2;P2;SDS_P1;SDS_P2;PMS_P1;PMS_P2;Temp;Humidity;BMP_temperature;BMP_pressure;BME280_temperature;BME280_humidity;BME280_pressure;Samples;Min_cycle;Max_cycle;Signal;HPM_P1;HPM_P2
2022/12/07 00:02:14;;;;;;;29.48;11.82;;;;;;;;;;6174153;23;20096;-45
2022/12/07 00:04:41;;;;;;;34.42;11.98;;;;;;;;;;6178173;23;20049;-47
2022/12/07 00:07:08;;;;;;;26.40;10.75;;;;;;;;;;6176197;23;20427;-65
2022/12/07 00:09:42;;;;;;;23.20;11.45;;;;;;;;;;6177628;23;20095;-60
2022/12/07 00:12:09;;;;;;;23.80;10.93;;;;;;;;;;6177947;23;20044;-62
2022/12/07 00:14:36;;;;;;;23.83;11.13;;;;;;;;;;6175751;23;20499;-62
2022/12/07 00:17:10;;;;;;;26.67;11.52;;;;;;;;;;6173341;23;20463;-62
2022/12/07 00:19:37;;;;;;;24.90;11.23;;;;;;;;;;6178242;23;20025;-62
2022/12/07 00:22:11;;;;;;;29.27;11.27;;;;;;;;;;6177915;23;20095;-63
2022/12/07 00:24:38;;;;;;;27.95;10.32;;;;;;;;;;6177046;23;20021;-62
2022/12/07 00:27:05;;;;;;;24.48;10.68;;;;;;;;;;6177586;23;20107;-64
2022/12/07 00:29:39;;;;;;;25.67;9.90;;;;;;;;;;6177260;23;20028;-46
2022/12/07 00:32:06;;;;;;;23.17;10.18;;;;;;;;;;6179896;23;20032;-53
2022/12/07 00:34:33;;;;;;;20.33;9.63;;;;;;;;;;6177392;23;20025;-53
2022/12/07 00:37:07;;;;;;;25.95;10.02;;;;;;;;;;6178606;23;20025;-54
2022/12/07 00:39:34;;;;;;;20.38;9.85;;;;;;;;;;6179846;23;20100;-52
2022/12/07 00:42:01;;;;;;;20.88;9.20;;;;;;;;;;6178743;23;20016;-52
2022/12/07 00:44:35;;;;;;;20.30;10.23;;;;;;;;;;6179335;23;20023;-49
2022/12/07 00:47:02;;;;;;;18.48;8.82;;;;;;;;;;6178101;23;20108;-54
2022/12/07 00:49:36;;;;;;;22.70;9.70;;;;;;;;;;6179886;23;20550;-52
2022/12/07 00:52:03;;;;;;;25.35;10.35;;;;;;;;;;6178385;23;20529;-50
2022/12/07 00:54:30;;;;;;;19.23;9.48;;;;;;;;;;6178938;23;20021;-52
2022/12/07 00:57:04;;;;;;;21.80;9.63;;;;;;;;;;6179880;23;20017;-51
2022/12/07 00:59:37;;;;;;;21.80;10.63;;;;;;;;;;6179791;23;20533;-52
2022/12/07 01:02:18;;;;;;;22.88;10.15;;;;;;;;;;6178075;23;20025;-51
2022/12/07 01:04:46;;;;;;;22.55;10.32;;;;;;;;;;6179099;23;20539;-52
2022/12/07 01:07:20;;;;;;;21.48;9.88;;;;;;;;;;6177858;23;20331;-46
2022/12/07 01:09:47;;;;;;;19.48;9.82;;;;;;;;;;6177876;23;20025;-50
2022/12/07 01:12:14;;;;;;;28.20;9.20;;;;;;;;;;6179023;23;20020;-53
2022/12/07 01:14:48;;;;;;;19.15;9.57;;;;;;;;;;6178080;23;20029;-49
2022/12/07 01:17:15;;;;;;;20.60;8.98;;;;;;;;;;6178056;23;20024;-51
2022/12/07 01:19:49;;;;;;;23.60;10.25;;;;;;;;;;6177728;23;20029;-53
2022/12/07 01:22:16;;;;;;;20.02;9.50;;;;;;;;;;6176756;23;20101;-52
2022/12/07 01:24:43;;;;;;;25.00;9.35;;;;;;;;;;6179047;23;20025;-49
2022/12/07 01:27:17;;;;;;;18.25;9.32;;;;;;;;;;6177329;23;20021;-48
2022/12/07 01:29:44;;;;;;;22.00;9.45;;;;;;;;;;6178198;23;20055;-50
2022/12/07 01:32:18;;;;;;;22.27;10.05;;;;;;;;;;6178174;23;20021;-53
2022/12/07 01:34:45;;;;;;;21.42;9.27;;;;;;;;;;6178060;23;20024;-51
2022/12/07 01:37:19;;;;;;;27.88;10.15;;;;;;;;;;6178076;23;20549;-50
2022/12/07 01:39:53;;;;;;;18.13;8.10;;;;;;;;;;6178204;23;20029;-49
2022/12/07 01:42:20;;;;;;;19.48;8.73;;;;;;;;;;6178219;23;20021;-45
2022/12/07 01:44:47;;;;;;;;;;;;;;;;;;6180072;23;20512;-49
2022/12/07 01:47:21;;;;;;;18.65;8.52;;;;;;;;;;6178342;23;20002;-56
2022/12/07 01:49:49;;;;;;;23.17;9.55;;;;;;;;;;6177812;23;20024;-51
2022/12/07 01:52:25;;;;;;;19.10;9.52;;;;;;;;;;6178167;23;20100;-53
2022/12/07 01:54:54;;;;;;;19.27;8.85;;;;;;;;;;6153749;23;20029;-49
2022/12/07 01:57:21;;;;;;;24.17;9.65;;;;;;;;;;6178294;23;20017;-51
2022/12/07 02:00:02;;;;;;;18.52;8.85;;;;;;;;;;6176307;23;20043;-54
2022/12/07 02:02:31;;;;;;;22.08;9.57;;;;;;;;;;6177666;23;20030;-55
2022/12/07 02:05:06;;;;;;;23.48;9.95;;;;;;;;;;6177861;23;20403;-65
2022/12/07 02:07:34;;;;;;;19.45;9.73;;;;;;;;;;6176622;23;20462;-52
2022/12/07 02:10:13;;;;;;;22.13;10.10;;;;;;;;;;6177652;23;20028;-55
2022/12/07 02:12:48;;;;;;;24.55;9.85;;;;;;;;;;6177707;23;20108;-59
2022/12/07 02:15:15;;;;;;;17.45;8.98;;;;;;;;;;6178494;23;20027;-56
2022/12/07 02:17:56;;;;;;;23.42;10.35;;;;;;;;;;6175994;23;20537;-59
2022/12/07 02:20:30;;;;;;;23.63;10.00;;;;;;;;;;6178421;23;20017;-64
2022/12/07 02:23:23;;;;;;;24.75;10.50;;;;;;;;;;6176761;23;20027;-54
2022/12/07 02:25:53;;;;;;;22.05;9.98;;;;;;;;;;6176385;23;20113;-46
2022/12/07 02:28:33;;;;;;;29.00;9.82;;;;;;;;;;6177381;23;20021;-46
2022/12/07 02:31:11;;;;;;;21.25;9.82;;;;;;;;;;6177757;23;20056;-45
2022/12/07 02:33:48;;;;;;;21.40;9.88;;;;;;;;;;6177841;23;20029;-48
2022/12/07 02:36:26;;;;;;;20.60;9.43;;;;;;;;;;6177808;23;20017;-44
2022/12/07 02:39:00;;;;;;;22.15;9.32;;;;;;;;;;6176777;23;20358;-47
2022/12/07 02:41:36;;;;;;;22.42;9.93;;;;;;;;;;6178688;23;20019;-49
2022/12/07 02:44:19;;;;;;;23.45;9.63;;;;;;;;;;6178754;23;20025;-49
2022/12/07 02:46:58;;;;;;;18.92;9.07;;;;;;;;;;6177173;23;20585;-47
2022/12/07 02:49:26;;;;;;;26.95;10.00;;;;;;;;;;6178688;23;20104;-46
2022/12/07 02:52:01;;;;;;;20.42;9.95;;;;;;;;;;6177797;23;20017;-46
2022/12/07 02:54:28;;;;;;;17.90;9.55;;;;;;;;;;6176746;23;20526;-46
2022/12/07 02:56:58;;;;;;;25.67;11.00;;;;;;;;;;6177718;23;20024;-44
2022/12/07 02:59:51;;;;;;;22.02;10.70;;;;;;;;;;6178982;23;20100;-45
2022/12/07 03:02:31;;;;;;;21.48;10.13;;;;;;;;;;6177966;23;20029;-47
2022/12/07 03:05:05;;;;;;;22.42;9.82;;;;;;;;;;6177454;23;20017;-46
2022/12/07 03:07:32;;;;;;;;;;;;;;;;;;6178966;23;20057;-46
2022/12/07 03:10:19;;;;;;;20.02;9.45;;;;;;;;;;6178446;23;19979;-45
2022/12/07 03:12:58;;;;;;;20.15;9.65;;;;;;;;;;6176770;23;20035;-45
2022/12/07 03:15:40;;;;;;;18.70;9.18;;;;;;;;;;6178014;23;20032;-46
2022/12/07 03:18:08;;;;;;;19.98;9.57;;;;;;;;;;6176893;23;20055;-57
2022/12/07 03:20:43;;;;;;;21.45;9.30;;;;;;;;;;6176762;23;20108;-64
2022/12/07 03:23:10;;;;;;;22.80;9.23;;;;;;;;;;6175986;23;20027;-49
2022/12/07 03:25:43;;;;;;;19.50;8.30;;;;;;;;;;6176818;23;20017;-52
2022/12/07 03:28:24;;;;;;;18.50;8.80;;;;;;;;;;6177619;23;20075;-52
2022/12/07 03:30:55;;;;;;;17.05;8.00;;;;;;;;;;6177286;23;20033;-51
2022/12/07 03:33:35;;;;;;;15.95;7.70;;;;;;;;;;6153059;23;20052;-48
2022/12/07 03:36:06;;;;;;;17.80;7.50;;;;;;;;;;6178750;23;20025;-50
2022/12/07 03:38:58;;;;;;;16.73;7.60;;;;;;;;;;6178451;23;20092;-49
2022/12/07 03:41:27;;;;;;;13.30;6.55;;;;;;;;;;6177648;23;20104;-50
2022/12/07 03:44:01;;;;;;;16.13;6.85;;;;;;;;;;6178102;23;20021;-53
2022/12/07 03:46:35;;;;;;;17.08;6.95;;;;;;;;;;6178693;23;20017;-52
2022/12/07 03:49:09;;;;;;;20.65;6.40;;;;;;;;;;6177605;23;20028;-52
2022/12/07 03:51:43;;;;;;;17.48;6.20;;;;;;;;;;6178665;23;20060;-52
2022/12/07 03:54:22;;;;;;;15.20;6.22;;;;;;;;;;6178824;23;20359;-51
2022/12/07 03:56:56;;;;;;;15.90;6.28;;;;;;;;;;6174704;23;20024;-63
2022/12/07 03:59:24;;;;;;;18.70;6.63;;;;;;;;;;6179405;23;20340;-46
2022/12/07 04:02:06;;;;;;;14.88;6.55;;;;;;;;;;6148747;23;20124;-65
2022/12/07 04:04:33;;;;;;;19.30;6.60;;;;;;;;;;6147839;23;20052;-65
2022/12/07 04:07:07;;;;;;;16.02;6.50;;;;;;;;;;6150219;23;20037;-65
2022/12/07 04:09:34;;;;;;;17.15;7.15;;;;;;;;;;6151184;23;20021;-65
2022/12/07 04:12:01;;;;;;;18.88;6.53;;;;;;;;;;6147667;23;20485;-65
2022/12/07 04:14:35;;;;;;;16.98;5.88;;;;;;;;;;6149357;23;20022;-64
2022/12/07 04:17:02;;;;;;;;;;;;;;;;;;6149831;23;20096;-47
2022/12/07 04:19:36;;;;;;;14.68;6.45;;;;;;;;;;6147867;23;19999;-62
2022/12/07 04:22:04;;;;;;;15.68;5.63;;;;;;;;;;6148874;23;20026;-63
2022/12/07 04:24:31;;;;;;;14.55;5.32;;;;;;;;;;6149567;23;20100;-62
2022/12/07 04:27:05;;;;;;;20.42;5.63;;;;;;;;;;6148711;23;20032;-63
2022/12/07 04:29:33;;;;;;;15.27;4.95;;;;;;;;;;6150165;23;20028;-62
2022/12/07 04:32:00;;;;;;;14.40;5.40;;;;;;;;;;6148201;23;20113;-63
2022/12/07 04:34:34;;;;;;;20.17;5.32;;;;;;;;;;6149334;23;20104;-46
2022/12/07 04:37:01;;;;;;;13.52;5.40;;;;;;;;;;6148970;23;20333;-50
2022/12/07 04:39:35;;;;;;;13.60;5.03;;;;;;;;;;6148943;23;20022;-54
2022/12/07 04:42:02;;;;;;;15.20;5.60;;;;;;;;;;6148762;23;20096;-54
2022/12/07 04:44:30;;;;;;;16.08;5.28;;;;;;;;;;6149787;23;20142;-55
2022/12/07 04:47:04;;;;;;;15.40;4.57;;;;;;;;;;6148602;23;20076;-50
2022/12/07 04:49:31;;;;;;;15.18;4.85;;;;;;;;;;6148610;23;20026;-56
2022/12/07 04:52:05;;;;;;;16.33;5.32;;;;;;;;;;6148834;23;20480;-52
2022/12/07 04:54:32;;;;;;;15.63;4.55;;;;;;;;;;6148364;23;20335;-49
2022/12/07 04:56:59;;;;;;;16.63;5.30;;;;;;;;;;6148885;23;20108;-52
2022/12/07 04:59:40;;;;;;;14.68;4.97;;;;;;;;;;6150135;23;20049;-54
2022/12/07 05:02:18;;;;;;;18.20;5.10;;;;;;;;;;6177740;23;20024;-51
2022/12/07 05:04:52;;;;;;;14.73;4.32;;;;;;;;;;6180518;23;20032;-51
2022/12/07 05:07:19;;;;;;;14.27;4.22;;;;;;;;;;6179734;23;20108;-51
2022/12/07 05:09:46;;;;;;;12.25;4.55;;;;;;;;;;6178362;23;20748;-49
2022/12/07 05:12:20;;;;;;;19.10;4.40;;;;;;;;;;6178410;23;20031;-53
2022/12/07 05:14:47;;;;;;;16.42;4.07;;;;;;;;;;6177667;23;20466;-58
2022/12/07 05:17:21;;;;;;;14.80;3.53;;;;;;;;;;6175644;23;20116;-52
2022/12/07 05:19:48;;;;;;;10.02;3.33;;;;;;;;;;6178039;23;20021;-55
2022/12/07 05:22:22;;;;;;;9.85;3.97;;;;;;;;;;6178825;23;20100;-54
2022/12/07 05:24:49;;;;;;;10.38;3.65;;;;;;;;;;6175880;23;20029;-56
2022/12/07 05:27:16;;;;;;;9.55;4.05;;;;;;;;;;6178741;23;20099;-54
2022/12/07 05:29:50;;;;;;;9.43;3.70;;;;;;;;;;6178733;23;20052;-55
2022/12/07 05:32:18;;;;;;;11.45;3.55;;;;;;;;;;6176346;23;20021;-54
2022/12/07 05:34:54;;;;;;;7.93;3.47;;;;;;;;;;6178135;23;20028;-52
2022/12/07 05:37:21;;;;;;;12.70;3.78;;;;;;;;;;6150007;23;20018;-55
2022/12/07 05:39:55;;;;;;;11.25;4.00;;;;;;;;;;6176684;23;20029;-55
2022/12/07 05:42:22;;;;;;;11.50;3.95;;;;;;;;;;6176581;23;20021;-52
2022/12/07 05:44:49;;;;;;;10.27;3.58;;;;;;;;;;6177476;23;20029;-52
2022/12/07 05:47:23;;;;;;;12.73;4.72;;;;;;;;;;6176892;23;20027;-53
2022/12/07 05:49:50;;;;;;;10.98;4.05;;;;;;;;;;6176165;23;20021;-54
2022/12/07 05:52:24;;;;;;;12.10;4.40;;;;;;;;;;6176273;23;20475;-46
2022/12/07 05:54:51;;;;;;;10.15;3.90;;;;;;;;;;6177557;23;20287;-63
2022/12/07 05:57:19;;;;;;;11.77;3.90;;;;;;;;;;6178371;23;20045;-62
2022/12/07 06:00:00;;;;;;;7.78;3.58;;;;;;;;;;6175157;23;20056;-63
2022/12/07 06:02:33;;;;;;;9.23;4.28;;;;;;;;;;6149022;23;20017;-62
2022/12/07 06:05:07;;;;;;;7.25;3.05;;;;;;;;;;6178938;23;20347;-62
2022/12/07 06:07:34;;;;;;;9.45;3.58;;;;;;;;;;6178892;23;20100;-62
2022/12/07 06:10:08;;;;;;;7.75;3.40;;;;;;;;;;6178287;23;20031;-49
2022/12/07 06:12:38;;;;;;;12.07;3.72;;;;;;;;;;6178798;23;20574;-64
2022/12/07 06:15:05;;;;;;;9.10;3.50;;;;;;;;;;6151796;23;20096;-62
2022/12/07 06:17:39;;;;;;;13.13;3.80;;;;;;;;;;6177221;23;20032;-62
2022/12/07 06:20:06;;;;;;;;;;;;;;;;;;6179261;23;20112;-63
2022/12/07 06:22:40;;;;;;;10.32;3.50;;;;;;;;;;6176639;23;19991;-63
2022/12/07 06:25:08;;;;;;;13.43;4.50;;;;;;;;;;6178755;23;20100;-62
2022/12/07 06:27:35;;;;;;;15.27;4.70;;;;;;;;;;6178099;23;20514;-62
2022/12/07 06:30:09;;;;;;;15.82;4.63;;;;;;;;;;6179500;23;20021;-52
2022/12/07 06:32:37;;;;;;;15.55;4.50;;;;;;;;;;6176606;23;20025;-66
2022/12/07 06:35:04;;;;;;;16.38;4.25;;;;;;;;;;6152449;23;20044;-65
2022/12/07 06:37:38;;;;;;;7.32;3.28;;;;;;;;;;6178886;23;20072;-65
2022/12/07 06:40:06;;;;;;;10.23;3.47;;;;;;;;;;6179762;23;20133;-65
2022/12/07 06:42:40;;;;;;;12.27;3.42;;;;;;;;;;6179134;23;20099;-65
2022/12/07 06:45:07;;;;;;;14.57;3.55;;;;;;;;;;6178492;23;20025;-65
2022/12/07 06:47:34;;;;;;;9.60;3.45;;;;;;;;;;6178126;23;20023;-64
2022/12/07 06:50:11;;;;;;;5.65;2.83;;;;;;;;;;6178653;23;20398;-54
2022/12/07 06:52:38;;;;;;;6.03;2.67;;;;;;;;;;6177048;23;20025;-63
2022/12/07 06:55:12;;;;;;;7.97;3.00;;;;;;;;;;6178263;23;20390;-62
2022/12/07 06:57:39;;;;;;;9.73;2.92;;;;;;;;;;6177991;23;20100;-63
2022/12/07 07:00:06;;;;;;;10.02;2.97;;;;;;;;;;6177199;23;20596;-62
2022/12/07 07:02:55;;;;;;;14.48;2.78;;;;;;;;;;6178331;23;20021;-63
2022/12/07 07:05:22;;;;;;;7.95;2.60;;;;;;;;;;6179198;23;20021;-63
2022/12/07 07:07:56;;;;;;;13.20;2.78;;;;;;;;;;6176147;23;20032;-51
2022/12/07 07:10:43;;;;;;;8.63;2.45;;;;;;;;;;6176943;23;20024;-50
2022/12/07 07:13:17;;;;;;;13.18;2.90;;;;;;;;;;6177866;23;20025;-49
2022/12/07 07:15:44;;;;;;;11.65;3.72;;;;;;;;;;6178200;23;20068;-50
2022/12/07 07:18:12;;;;;;;7.45;2.92;;;;;;;;;;6178542;23;20017;-51
2022/12/07 07:20:46;;;;;;;9.63;2.72;;;;;;;;;;6177300;23;20025;-49
2022/12/07 07:23:13;;;;;;;8.98;3.03;;;;;;;;;;6177523;23;20340;-48
2022/12/07 07:25:47;;;;;;;5.78;3.00;;;;;;;;;;6177756;23;20021;-54
2022/12/07 07:28:15;;;;;;;7.82;2.50;;;;;;;;;;6176942;23;20060;-53
2022/12/07 07:30:42;;;;;;;7.03;2.13;;;;;;;;;;6177219;23;20036;-53
2022/12/07 07:33:16;;;;;;;7.63;2.78;;;;;;;;;;6178290;23;20074;-50
2022/12/07 07:35:43;;;;;;;9.80;2.55;;;;;;;;;;6151885;23;20051;-52
2022/12/07 07:38:10;;;;;;;8.35;2.40;;;;;;;;;;6176133;23;20109;-49
2022/12/07 07:40:44;;;;;;;7.90;2.60;;;;;;;;;;6180188;23;20021;-53
2022/12/07 07:43:11;;;;;;;5.97;2.60;;;;;;;;;;6180418;23;20488;-51
2022/12/07 07:45:45;;;;;;;5.47;2.30;;;;;;;;;;6179447;23;20100;-60
2022/12/07 07:48:12;;;;;;;8.32;2.85;;;;;;;;;;6152864;23;20020;-62
2022/12/07 07:50:40;;;;;;;5.80;2.70;;;;;;;;;;6180963;23;20064;-63
2022/12/07 07:53:14;;;;;;;8.88;2.42;;;;;;;;;;6178328;23;20017;-62
2022/12/07 07:55:41;;;;;;;8.73;2.20;;;;;;;;;;6180371;23;20068;-63
2022/12/07 07:58:15;;;;;;;6.85;2.40;;;;;;;;;;6180368;23;20024;-63
2022/12/07 08:00:48;;;;;;;7.13;2.78;;;;;;;;;;6179366;23;20025;-63
2022/12/07 08:03:22;;;;;;;5.47;2.33;;;;;;;;;;6155620;23;20027;-52
2022/12/07 08:05:49;;;;;;;7.35;2.10;;;;;;;;;;6180357;23;20348;-49
2022/12/07 08:08:16;;;;;;;4.85;2.10;;;;;;;;;;6179769;23;20025;-48
2022/12/07 08:10:50;;;;;;;6.03;2.00;;;;;;;;;;6180626;23;20100;-48
2022/12/07 08:13:17;;;;;;;8.20;2.30;;;;;;;;;;6178777;23;20629;-47
2022/12/07 08:15:57;;;;;;;9.07;2.40;;;;;;;;;;6178959;23;20021;-48
2022/12/07 08:18:24;;;;;;;5.57;2.35;;;;;;;;;;6177342;23;20021;-48
2022/12/07 08:21:01;;;;;;;13.98;2.80;;;;;;;;;;6179797;23;20100;-47
2022/12/07 08:23:28;;;;;;;6.85;2.30;;;;;;;;;;6178250;23;20060;-46
2022/12/07 08:26:07;;;;;;;8.07;2.22;;;;;;;;;;6180265;23;20017;-51
2022/12/07 08:28:41;;;;;;;5.47;2.17;;;;;;;;;;6178292;23;20024;-53
2022/12/07 08:31:08;;;;;;;;;;;;;;;;;;6181419;23;20057;-50
2022/12/07 08:33:42;;;;;;;8.18;2.47;;;;;;;;;;6180598;23;20535;-53
2022/12/07 08:36:09;;;;;;;;;;;;;;;;;;6179819;23;20440;-53
2022/12/07 08:38:37;;;;;;;6.43;2.83;;;;;;;;;;6179688;23;20289;-49
2022/12/07 08:41:31;;;;;;;9.38;2.90;;;;;;;;;;6180075;23;20028;-64
2022/12/07 08:43:58;;;;;;;9.18;2.58;;;;;;;;;;6179564;23;20109;-61
2022/12/07 08:46:37;;;;;;;15.27;3.67;;;;;;;;;;6180539;23;20489;-52
2022/12/07 08:49:16;;;;;;;7.47;2.72;;;;;;;;;;6180210;23;20024;-53
2022/12/07 08:51:50;;;;;;;6.53;2.80;;;;;;;;;;6177687;23;20443;-53
2022/12/07 08:54:18;;;;;;;10.02;2.92;;;;;;;;;;6179945;23;20318;-57
2022/12/07 08:56:46;;;;;;;9.63;2.83;;;;;;;;;;6179265;23;20035;-56
2022/12/07 08:59:26;;;;;;;10.43;3.55;;;;;;;;;;6179933;23;20030;-54
2022/12/07 09:02:06;;;;;;;12.02;3.63;;;;;;;;;;6179563;23;20108;-54
2022/12/07 09:04:40;;;;;;;10.07;3.20;;;;;;;;;;6180439;23;20021;-63
2022/12/07 09:07:07;;;;;;;14.40;3.50;;;;;;;;;;6178601;23;20104;-63
2022/12/07 09:09:35;;;;;;;9.95;3.75;;;;;;;;;;6180355;23;20044;-63
2022/12/07 09:12:10;;;;;;;13.18;3.60;;;;;;;;;;6180279;23;20025;-64
2022/12/07 09:14:37;;;;;;;6.45;3.25;;;;;;;;;;6179183;23;20100;-63
2022/12/07 09:17:12;;;;;;;12.77;3.55;;;;;;;;;;6179916;23;20561;-63
2022/12/07 09:19:41;;;;;;;12.88;3.83;;;;;;;;;;6179503;23;20517;-65
2022/12/07 09:22:08;;;;;;;10.80;3.80;;;;;;;;;;6154185;23;20048;-51
2022/12/07 09:24:43;;;;;;;6.95;3.55;;;;;;;;;;6179061;23;20021;-46
2022/12/07 09:27:10;;;;;;;10.55;4.03;;;;;;;;;;6179402;23;20031;-50
2022/12/07 09:29:44;;;;;;;8.07;3.47;;;;;;;;;;6178046;23;20100;-45
2022/12/07 09:32:11;;;;;;;7.43;3.13;;;;;;;;;;6179700;23;20355;-45
2022/12/07 09:34:38;;;;;;;12.20;3.03;;;;;;;;;;6179296;23;20021;-45
2022/12/07 09:37:12;;;;;;;6.75;2.95;;;;;;;;;;6179041;23;20024;-46
2022/12/07 09:39:40;;;;;;;8.20;2.50;;;;;;;;;;6179772;23;20031;-61
2022/12/07 09:42:27;;;;;;;7.20;2.77;;;;;;;;;;6179608;23;20109;-46
2022/12/07 09:44:54;;;;;;;;;;;;;;;;;;6179923;23;20091;-44
2022/12/07 09:47:28;;;;;;;5.78;2.35;;;;;;;;;;6179934;23;20223;-46
2022/12/07 09:50:07;;;;;;;6.00;1.90;;;;;;;;;;6179691;23;20104;-44
2022/12/07 09:52:41;;;;;;;6.78;2.55;;;;;;;;;;6177476;23;20033;-46
2022/12/07 09:55:21;;;;;;;6.95;2.13;;;;;;;;;;6178579;23;20519;-44
2022/12/07 09:57:55;;;;;;;7.53;2.72;;;;;;;;;;6178273;23;20127;-61
2022/12/07 10:00:23;;;;;;;3.72;2.38;;;;;;;;;;6178799;23;20461;-62
2022/12/07 10:02:59;;;;;;;4.88;2.10;;;;;;;;;;6177767;23;20059;-45
2022/12/07 10:05:36;;;;;;;15.18;3.25;;;;;;;;;;6177905;23;20056;-46
2022/12/07 10:08:04;;;;;;;3.50;1.77;;;;;;;;;;6178706;23;20023;-45
2022/12/07 10:10:39;;;;;;;11.68;2.35;;;;;;;;;;6178259;23;20060;-45
2022/12/07 10:13:08;;;;;;;4.80;1.83;;;;;;;;;;6178292;23;20025;-45
2022/12/07 10:15:44;;;;;;;7.18;2.20;;;;;;;;;;6177527;23;20100;-50
2022/12/07 10:18:17;;;;;;;5.70;2.03;;;;;;;;;;6178402;23;20027;-64
2022/12/07 10:21:00;;;;;;;8.63;1.80;;;;;;;;;;6179484;23;20056;-47
2022/12/07 10:23:34;;;;;;;5.25;1.80;;;;;;;;;;6177979;23;20100;-52
2022/12/07 10:26:34;;;;;;;7.03;1.77;;;;;;;;;;6179183;23;20104;-48
2022/12/07 10:29:17;;;;;;;7.22;1.90;;;;;;;;;;6178674;23;20104;-47
2022/12/07 10:31:58;;;;;;;3.90;1.95;;;;;;;;;;6176930;23;20031;-50
2022/12/07 10:34:30;;;;;;;10.07;2.67;;;;;;;;;;6178324;23;20031;-50
2022/12/07 10:37:14;;;;;;;7.68;3.38;;;;;;;;;;6178566;23;20025;-65
2022/12/07 10:39:51;;;;;;;5.18;3.35;;;;;;;;;;6152341;23;20075;-44
2022/12/07 10:42:26;;;;;;;6.32;2.55;;;;;;;;;;6178123;23;20047;-46
2022/12/07 10:45:12;;;;;;;5.88;2.55;;;;;;;;;;6178812;23;20047;-45
2022/12/07 10:47:53;;;;;;;6.00;2.78;;;;;;;;;;6177343;23;20021;-47
2022/12/07 10:50:32;;;;;;;8.07;3.03;;;;;;;;;;6178426;23;20104;-44
2022/12/07 10:53:06;;;;;;;9.43;3.25;;;;;;;;;;6179056;23;20100;-45
2022/12/07 10:55:36;;;;;;;6.18;3.05;;;;;;;;;;6177645;23;20021;-63
2022/12/07 10:58:19;;;;;;;9.45;3.45;;;;;;;;;;6178365;23;20105;-55
2022/12/07 11:01:02;;;;;;;9.77;2.97;;;;;;;;;;6177338;23;20248;-64
2022/12/07 11:03:51;;;;;;;7.25;2.45;;;;;;;;;;6147992;23;20053;-64
2022/12/07 11:06:30;;;;;;;7.28;2.70;;;;;;;;;;6147657;23;20081;-64
2022/12/07 11:09:23;;;;;;;7.68;2.90;;;;;;;;;;6148124;23;20018;-64
2022/12/07 11:12:17;;;;;;;8.52;3.17;;;;;;;;;;6148993;23;20032;-64
2022/12/07 11:14:59;;;;;;;7.05;2.75;;;;;;;;;;6147836;23;20041;-50
2022/12/07 11:17:42;;;;;;;6.05;2.38;;;;;;;;;;6147490;23;20103;-45
2022/12/07 11:20:27;;;;;;;8.98;2.85;;;;;;;;;;6148479;23;20096;-58
2022/12/07 11:22:54;;;;;;;;;;;;;;;;;;6148931;23;20475;-54
2022/12/07 11:25:33;;;;;;;9.25;3.50;;;;;;;;;;6148871;23;20002;-56
2022/12/07 11:28:18;;;;;;;8.25;2.95;;;;;;;;;;6147530;23;20487;-56
2022/12/07 11:31:11;;;;;;;13.60;3.20;;;;;;;;;;6147553;23;20088;-54
2022/12/07 11:33:41;;;;;;;8.40;3.60;;;;;;;;;;6147942;23;20104;-48
2022/12/07 11:36:38;;;;;;;8.38;2.92;;;;;;;;;;6149389;23;20036;-61
2022/12/07 11:39:24;;;;;;;9.40;3.10;;;;;;;;;;6133156;23;20021;-51
2022/12/07 11:42:04;;;;;;;7.85;2.70;;;;;;;;;;6146600;23;20464;-55
2022/12/07 11:44:34;;;;;;;5.90;2.70;;;;;;;;;;6148924;23;20499;-50
2022/12/07 11:47:11;;;;;;;12.57;2.90;;;;;;;;;;6147249;23;20363;-55
2022/12/07 11:49:51;;;;;;;11.90;3.00;;;;;;;;;;6148049;23;20100;-52
2022/12/07 11:52:33;;;;;;;11.02;2.95;;;;;;;;;;6147976;23;20101;-47
2022/12/07 11:55:02;;;;;;;7.13;3.30;;;;;;;;;;6147696;23;20108;-64
2022/12/07 11:57:39;;;;;;;8.57;3.38;;;;;;;;;;6148580;23;20558;-54
2022/12/07 12:00:12;;;;;;;6.15;2.80;;;;;;;;;;6146792;23;20371;-53
2022/12/07 12:03:03;;;;;;;9.55;3.22;;;;;;;;;;6169952;23;20036;-51
2022/12/07 12:05:30;;;;;;;6.30;2.67;;;;;;;;;;6177564;23;20332;-53
2022/12/07 12:08:13;;;;;;;7.72;2.72;;;;;;;;;;6177977;23;20027;-55
2022/12/07 12:11:14;;;;;;;14.55;3.72;;;;;;;;;;6177074;23;20025;-45
2022/12/07 12:13:57;;;;;;;8.33;3.20;;;;;;;;;;6177898;23;20025;-53
2022/12/07 12:16:50;;;;;;;12.63;4.32;;;;;;;;;;6176407;23;20021;-48
2022/12/07 12:19:36;;;;;;;9.95;4.03;;;;;;;;;;6177283;23;20027;-49
2022/12/07 12:22:08;;;;;;;12.75;4.43;;;;;;;;;;6179117;23;20024;-47
2022/12/07 12:24:43;;;;;;;13.63;4.10;;;;;;;;;;6177711;23;20060;-48
2022/12/07 12:27:19;;;;;;;14.70;3.92;;;;;;;;;;6180043;23;20025;-51
2022/12/07 12:29:55;;;;;;;11.40;4.13;;;;;;;;;;6180504;23;20043;-62
2022/12/07 12:32:24;;;;;;;14.18;4.00;;;;;;;;;;6180198;23;20052;-53
2022/12/07 12:34:54;;;;;;;13.05;4.68;;;;;;;;;;6179767;23;20052;-45
2022/12/07 12:37:35;;;;;;;11.10;4.13;;;;;;;;;;6181319;23;20032;-44
2022/12/07 12:40:17;;;;;;;13.55;4.60;;;;;;;;;;6179020;23;20061;-46
2022/12/07 12:42:52;;;;;;;10.15;3.63;;;;;;;;;;6180400;23;20031;-45
2022/12/07 12:45:27;;;;;;;12.68;3.92;;;;;;;;;;6179885;23;20463;-45
2022/12/07 12:48:04;;;;;;;11.25;3.50;;;;;;;;;;6180737;23;20024;-46
2022/12/07 12:50:33;;;;;;;4.93;2.65;;;;;;;;;;6178592;23;20036;-52
2022/12/07 12:53:26;;;;;;;7.55;2.75;;;;;;;;;;6181162;23;20021;-63
2022/12/07 12:56:13;;;;;;;9.07;2.90;;;;;;;;;;6180217;23;20100;-62
2022/12/07 12:58:48;;;;;;;9.50;2.85;;;;;;;;;;6179770;23;20032;-63
2022/12/07 13:01:27;;;;;;;5.30;2.97;;;;;;;;;;6178128;23;20097;-63
2022/12/07 13:04:01;;;;;;;4.97;2.80;;;;;;;;;;6177718;23;20355;-63
2022/12/07 13:06:28;;;;;;;10.20;2.83;;;;;;;;;;6179866;23;20021;-63
2022/12/07 13:09:02;;;;;;;4.55;2.70;;;;;;;;;;6178858;23;20075;-64
2022/12/07 13:11:29;;;;;;;;;;;;;;;;;;6179317;23;20100;-52
2022/12/07 13:14:28;;;;;;;6.90;2.55;;;;;;;;;;6178045;23;19920;-47
2022/12/07 13:16:59;;;;;;;5.32;2.47;;;;;;;;;;6178814;23;20129;-48
2022/12/07 13:19:42;;;;;;;6.65;2.60;;;;;;;;;;6179655;23;20021;-49
2022/12/07 13:22:27;;;;;;;9.25;2.53;;;;;;;;;;6179747;23;20847;-48
2022/12/07 13:25:04;;;;;;;13.38;3.47;;;;;;;;;;6177196;23;20025;-47
2022/12/07 13:27:31;;;;;;;8.52;2.95;;;;;;;;;;6180320;23;20104;-64
2022/12/07 13:30:14;;;;;;;10.20;3.33;;;;;;;;;;6178516;23;20017;-63
2022/12/07 13:32:41;;;;;;;9.30;3.50;;;;;;;;;;6177885;23;20100;-54
2022/12/07 13:35:28;;;;;;;7.22;2.97;;;;;;;;;;6179441;23;20056;-54
2022/12/07 13:37:55;;;;;;;7.30;2.63;;;;;;;;;;6177800;23;20100;-56
2022/12/07 13:40:29;;;;;;;13.85;3.50;;;;;;;;;;6177590;23;20035;-55
2022/12/07 13:43:00;;;;;;;9.20;3.15;;;;;;;;;;6178705;23;20903;-52
2022/12/07 13:45:49;;;;;;;5.68;3.05;;;;;;;;;;6178601;23;20558;-56
2022/12/07 13:48:28;;;;;;;6.10;2.70;;;;;;;;;;6178784;23;20017;-64
2022/12/07 13:51:03;;;;;;;6.05;2.65;;;;;;;;;;6178911;23;20100;-64
2022/12/07 13:53:30;;;;;;;7.28;2.70;;;;;;;;;;6179336;23;20021;-64
2022/12/07 13:56:04;;;;;;;8.10;2.40;;;;;;;;;;6177823;23;20060;-64
2022/12/07 13:58:32;;;;;;;6.50;2.92;;;;;;;;;;6178733;23;20021;-64
2022/12/07 14:01:06;;;;;;;3.90;2.50;;;;;;;;;;6178991;23;20025;-64
2022/12/07 14:03:41;;;;;;;9.15;2.63;;;;;;;;;;6178479;23;20025;-63
2022/12/07 14:06:17;;;;;;;5.32;2.13;;;;;;;;;;6178220;23;20032;-64
2022/12/07 14:08:45;;;;;;;7.93;2.70;;;;;;;;;;6179327;23;20072;-54
2022/12/07 14:11:17;;;;;;;7.32;2.55;;;;;;;;;;6176436;23;20033;-56
2022/12/07 14:13:50;;;;;;;;;;;;;;;;;;6179341;23;20100;-57
2022/12/07 14:16:34;;;;;;;7.53;2.35;;;;;;;;;;6177810;23;20651;-57
2022/12/07 14:19:28;;;;;;;10.77;2.35;;;;;;;;;;6177077;23;20036;-55
2022/12/07 14:22:09;;;;;;;4.85;2.08;;;;;;;;;;6178760;23;20474;-56
2022/12/07 14:24:43;;;;;;;6.85;2.10;;;;;;;;;;6177390;23;20504;-52
2022/12/07 14:27:10;;;;;;;;;;;;;;;;;;6179311;23;20396;-48
2022/12/07 14:29:44;;;;;;;5.97;2.50;;;;;;;;;;6178937;23;19922;-52
2022/12/07 14:32:28;;;;;;;5.40;2.30;;;;;;;;;;6180423;23;20032;-50
2022/12/07 14:35:04;;;;;;;6.13;2.47;;;;;;;;;;6178073;23;20025;-50
2022/12/07 14:37:31;;;;;;;3.33;2.23;;;;;;;;;;6179599;23;20021;-51
2022/12/07 14:40:06;;;;;;;5.57;2.20;;;;;;;;;;6178080;23;20501;-53
2022/12/07 14:42:33;;;;;;;8.05;2.20;;;;;;;;;;6180219;23;20021;-53
2022/12/07 14:45:00;;;;;;;6.67;2.60;;;;;;;;;;6178730;23;20168;-62
2022/12/07 14:47:34;;;;;;;7.93;2.63;;;;;;;;;;6179219;23;20100;-50
2022/12/07 14:50:21;;;;;;;4.30;2.60;;;;;;;;;;6178330;23;20027;-52
2022/12/07 14:52:56;;;;;;;10.10;2.73;;;;;;;;;;6178748;23;20021;-48
2022/12/07 14:55:44;;;;;;;8.93;2.65;;;;;;;;;;6177917;23;20017;-49
2022/12/07 14:58:18;;;;;;;6.17;2.40;;;;;;;;;;6178752;23;20039;-48
2022/12/07 15:00:45;;;;;;;;;;;;;;;;;;6151537;23;20038;-48
2022/12/07 15:03:26;;;;;;;11.60;3.53;;;;;;;;;;6176544;23;19916;-67
2022/12/07 15:05:59;;;;;;;6.50;3.60;;;;;;;;;;6176859;23;20028;-65
2022/12/07 15:08:33;;;;;;;6.63;3.40;;;;;;;;;;6175942;23;20025;-64
2022/12/07 15:11:00;;;;;;;;;;;;;;;;;;6176788;23;20023;-65
2022/12/07 15:16:21;;;;;;;6.30;3.30;;;;;;;;;;6176545;23;20028;-65
2022/12/07 15:18:48;;;;;;;9.73;3.87;;;;;;;;;;6150498;23;20025;-65
2022/12/07 15:21:42;;;;;;;9.07;3.87;;;;;;;;;;6178499;23;20024;-63